createdAt,value
2019-05-09T00:00:24.429Z,99.90
2019-05-09T00:02:54.103Z,99.90
2019-05-09T00:05:23.301Z,99.90
2019-05-09T00:07:53.193Z,99.90
2019-05-09T00:10:36.742Z,99.90
2019-05-09T00:12:50.936Z,99.90
2019-05-09T00:15:18.881Z,99.90
2019-05-09T00:17:46.583Z,99.90
2019-05-09T00:20:23.866Z,99.90
2019-05-09T00:22:53.941Z,99.90
2019-05-09T00:25:23.637Z,99.90
2019-05-09T00:27:53.609Z,99.90
2019-05-09T00:30:40.523Z,99.90
2019-05-09T00:33:09.818Z,99.90
2019-05-09T00:35:39.439Z,99.90
2019-05-09T00:38:08.358Z,99.90
2019-05-09T00:40:36.104Z,99.90
2019-05-09T00:43:04.085Z,99.90
2019-05-09T00:45:51.686Z,99.90
2019-05-09T00:48:23.969Z,99.90
2019-05-09T00:50:54.431Z,99.90
2019-05-09T00:53:23.231Z,99.90
2019-05-09T00:55:52.955Z,99.90
2019-05-09T00:58:20.721Z,99.90
2019-05-09T01:00:53.304Z,99.90
2019-05-09T01:03:23.331Z,99.90
2019-05-09T01:05:50.645Z,99.90
2019-05-09T01:08:18.523Z,99.90
2019-05-09T01:10:46.205Z,99.90
2019-05-09T01:13:14.290Z,99.90
2019-05-09T01:15:44.044Z,99.90
2019-05-09T01:18:13.227Z,99.90
2019-05-09T01:20:41.205Z,99.90
2019-05-09T01:23:08.946Z,99.90
2019-05-09T01:25:36.613Z,99.90
2019-05-09T01:28:04.388Z,99.90
2019-05-09T01:30:33.606Z,99.90
2019-05-09T01:33:17.150Z,99.90
2019-05-09T01:35:46.440Z,99.90
2019-05-09T01:38:14.427Z,99.90
2019-05-09T01:40:43.859Z,99.90
2019-05-09T01:43:13.845Z,99.90
2019-05-09T01:45:43.194Z,99.90
2019-05-09T01:50:38.761Z,99.90
2019-05-09T01:53:06.507Z,99.90
2019-05-09T01:55:53.955Z,99.90
2019-05-09T01:58:23.493Z,99.90
2019-05-09T02:00:54.052Z,99.20
2019-05-09T02:03:23.366Z,99.20
2019-05-09T02:05:53.146Z,99.20
2019-05-09T02:08:20.806Z,98.90
2019-05-09T02:10:48.678Z,98.80
2019-05-09T02:13:16.554Z,98.80
2019-05-09T02:16:09.429Z,98.50
2019-05-09T02:18:44.159Z,98.70
2019-05-09T02:21:14.525Z,98.60
2019-05-09T02:23:43.215Z,98.50
2019-05-09T02:26:13.372Z,98.40
2019-05-09T02:28:42.616Z,98.40
2019-05-09T02:31:10.497Z,98.30
2019-05-09T02:33:38.233Z,98.40
2019-05-09T02:36:09.484Z,98.80
2019-05-09T02:38:35.573Z,99.50
2019-05-09T02:41:03.351Z,99.80
2019-05-09T02:43:31.121Z,99.80
2019-05-09T02:46:09.725Z,99.90
2019-05-09T02:48:39.342Z,99.90
2019-05-09T02:51:09.299Z,99.90
2019-05-09T02:53:39.499Z,99.80
2019-05-09T02:56:08.948Z,99.60
2019-05-09T02:58:48.323Z,99.70
2019-05-09T03:01:29.557Z,99.90
2019-05-09T03:03:59.081Z,99.90
2019-05-09T03:06:28.392Z,99.80
2019-05-09T03:08:59.137Z,99.90
2019-05-09T03:11:28.902Z,99.80
2019-05-09T03:13:58.326Z,99.70
2019-05-09T03:16:25.331Z,99.80
2019-05-09T03:18:53.120Z,99.60
2019-05-09T03:21:29.385Z,99.70
2019-05-09T03:23:59.191Z,99.50
2019-05-09T03:26:31.193Z,99.70
2019-05-09T03:29:08.787Z,99.60
2019-05-09T03:31:39.510Z,99.40
2019-05-09T03:34:09.450Z,99.50
2019-05-09T03:36:38.555Z,99.80
2019-05-09T03:39:08.197Z,99.70
2019-05-09T03:41:36.249Z,99.60
2019-05-09T03:44:04.101Z,99.70
2019-05-09T03:46:51.344Z,99.40
2019-05-09T03:49:21.354Z,99.50
2019-05-09T03:51:50.590Z,99.40
2019-05-09T03:54:18.511Z,99.10
2019-05-09T03:56:50.840Z,99.20
2019-05-09T03:59:20.214Z,99.20
2019-05-09T04:01:50.339Z,99.50
2019-05-09T04:04:19.501Z,99.50
2019-05-09T04:06:48.025Z,99.60
2019-05-09T04:09:17.968Z,99.70
2019-05-09T04:11:45.642Z,99.90
2019-05-09T04:14:20.965Z,99.90
2019-05-09T04:16:48.799Z,99.90
2019-05-09T04:19:17.498Z,99.90
2019-05-09T04:21:45.486Z,99.80
2019-05-09T04:24:13.217Z,99.90
2019-05-09T04:26:48.394Z,99.70
2019-05-09T04:29:18.461Z,99.90
2019-05-09T04:31:48.189Z,99.70
2019-05-09T04:34:18.115Z,99.90
2019-05-09T04:36:45.619Z,99.80
2019-05-09T04:39:18.958Z,99.90
2019-05-09T04:41:43.282Z,99.90
2019-05-09T04:44:19.237Z,99.90
2019-05-09T04:46:48.028Z,99.90
2019-05-09T04:49:16.059Z,99.90
2019-05-09T04:51:43.856Z,99.90
2019-05-09T04:54:11.598Z,99.90
2019-05-09T04:56:40.636Z,99.90
2019-05-09T04:59:09.806Z,99.90
2019-05-09T05:01:59.751Z,99.90
2019-05-09T05:04:29.147Z,99.90
2019-05-09T05:06:58.560Z,99.90
2019-05-09T05:09:27.763Z,99.90
2019-05-09T05:11:58.041Z,99.90
2019-05-09T05:14:28.086Z,99.90
2019-05-09T05:17:06.286Z,99.90
2019-05-09T05:19:30.963Z,99.90
2019-05-09T05:22:01.180Z,99.90
2019-05-09T05:24:44.853Z,99.90
2019-05-09T05:27:14.143Z,99.90
2019-05-09T05:29:41.898Z,99.90
2019-05-09T05:32:14.572Z,99.90
2019-05-09T05:35:04.694Z,99.90
2019-05-09T05:37:33.962Z,99.90
2019-05-09T05:40:01.807Z,99.90
2019-05-09T05:42:30.334Z,99.90
2019-05-09T05:44:58.417Z,99.90
2019-05-09T05:47:37.931Z,99.90
2019-05-09T05:50:08.418Z,99.90
2019-05-09T05:52:37.556Z,99.80
2019-05-09T05:55:07.426Z,99.70
2019-05-09T05:57:35.405Z,99.70
2019-05-09T06:00:03.287Z,99.50
2019-05-09T06:02:32.149Z,99.20
2019-05-09T06:04:59.850Z,99.50
2019-05-09T06:07:28.503Z,99.40
2019-05-09T06:09:57.568Z,98.70
2019-05-09T06:12:27.555Z,98.50
2019-05-09T06:14:55.187Z,98.50
2019-05-09T06:17:22.977Z,98.70
2019-05-09T06:19:50.641Z,98.60
2019-05-09T06:22:18.506Z,98.60
2019-05-09T06:24:47.829Z,98.40
2019-05-09T06:27:18.089Z,98.40
2019-05-09T06:29:47.561Z,98.20
2019-05-09T06:32:14.909Z,98.30
2019-05-09T06:34:42.683Z,98.80
2019-05-09T06:37:10.451Z,98.90
2019-05-09T06:39:38.341Z,98.70
2019-05-09T06:42:08.586Z,98.60
2019-05-09T06:44:43.210Z,98.30
2019-05-09T06:47:22.975Z,98.00
2019-05-09T06:49:54.025Z,98.30
2019-05-09T06:52:23.371Z,98.50
2019-05-09T06:54:51.138Z,98.70
2019-05-09T06:57:18.950Z,99.00
2019-05-09T06:59:48.646Z,98.70
2019-05-09T07:02:34.342Z,98.30
2019-05-09T07:05:11.738Z,98.00
2019-05-09T07:07:45.646Z,98.70
2019-05-09T07:10:14.901Z,97.80
2019-05-09T07:12:42.654Z,97.60
2019-05-09T07:15:12.257Z,96.70
2019-05-09T07:17:40.849Z,95.70
2019-05-09T07:20:08.798Z,95.90
2019-05-09T07:22:58.265Z,95.30
2019-05-09T07:25:30.628Z,94.80
2019-05-09T07:27:59.976Z,93.90
2019-05-09T07:31:07.722Z,94.40
2019-05-09T07:33:59.329Z,93.70
2019-05-09T07:36:29.169Z,94.60
2019-05-09T07:38:58.259Z,94.40
2019-05-09T07:41:28.234Z,94.50
2019-05-09T07:43:58.218Z,95.10
2019-05-09T07:46:33.023Z,94.50
2019-05-09T07:49:03.024Z,94.30
2019-05-09T07:51:30.846Z,94.20
2019-05-09T07:53:59.119Z,94.30
2019-05-09T07:56:28.439Z,93.90
2019-05-09T07:58:58.490Z,93.50
2019-05-09T08:01:28.042Z,94.00
2019-05-09T08:03:58.159Z,94.30
2019-05-09T08:06:25.262Z,93.60
2019-05-09T08:08:53.037Z,93.40
2019-05-09T08:11:20.705Z,94.10
2019-05-09T08:13:48.778Z,93.90
2019-05-09T08:16:18.623Z,93.80
2019-05-09T08:18:48.292Z,93.70
2019-05-09T08:21:18.070Z,94.40
2019-05-09T08:23:45.622Z,93.50
2019-05-09T08:26:13.377Z,93.50
2019-05-09T08:28:41.042Z,94.40
2019-05-09T08:31:08.807Z,94.80
2019-05-09T08:33:38.053Z,95.00
2019-05-09T08:36:08.770Z,94.40
2019-05-09T08:38:38.521Z,94.50
2019-05-09T08:41:13.293Z,94.40
2019-05-09T08:43:41.901Z,93.70
2019-05-09T08:46:10.778Z,93.80
2019-05-09T08:48:38.546Z,94.10
2019-05-09T08:51:47.246Z,94.30
2019-05-09T08:54:09.295Z,94.00
2019-05-09T08:56:38.857Z,93.80
2019-05-09T08:59:08.235Z,94.00
2019-05-09T09:01:54.217Z,94.50
2019-05-09T09:04:07.939Z,94.50
2019-05-09T09:06:37.357Z,94.30
2019-05-09T09:09:05.289Z,94.70
2019-05-09T09:11:33.067Z,95.30
2019-05-09T09:14:00.766Z,95.30
2019-05-09T09:16:28.567Z,95.60
2019-05-09T09:18:58.423Z,95.40
2019-05-09T09:21:28.407Z,94.80
2019-05-09T09:23:55.382Z,95.20
2019-05-09T09:26:23.142Z,95.60
2019-05-09T09:28:50.815Z,95.50
2019-05-09T09:31:18.541Z,96.40
2019-05-09T09:33:48.006Z,96.60
2019-05-09T09:36:17.830Z,96.20
2019-05-09T09:38:47.753Z,96.50
2019-05-09T09:41:15.073Z,95.70
2019-05-09T09:43:42.899Z,96.50
2019-05-09T09:46:14.680Z,96.40
2019-05-09T09:48:40.435Z,97.60
2019-05-09T09:51:08.351Z,97.50
2019-05-09T09:53:38.256Z,98.60
2019-05-09T09:56:05.741Z,96.60
2019-05-09T09:58:33.615Z,95.70
2019-05-09T10:01:28.743Z,94.90
2019-05-09T10:04:19.395Z,95.90
2019-05-09T10:06:42.408Z,95.80
2019-05-09T10:09:10.705Z,96.00
2019-05-09T10:11:38.411Z,95.60
2019-05-09T10:14:07.990Z,94.50
2019-05-09T10:16:57.954Z,94.20
2019-05-09T10:19:31.803Z,92.50
2019-05-09T10:22:02.038Z,93.00
2019-05-09T10:24:31.429Z,93.10
2019-05-09T10:27:04.905Z,92.60
2019-05-09T10:29:34.310Z,90.90
2019-05-09T10:32:02.120Z,91.90
2019-05-09T10:34:30.469Z,92.00
2019-05-09T10:36:58.382Z,90.50
2019-05-09T10:39:27.648Z,89.80
2019-05-09T10:41:57.673Z,91.30
2019-05-09T10:44:31.887Z,87.40
2019-05-09T10:47:12.371Z,89.30
2019-05-09T10:49:41.717Z,90.10
2019-05-09T10:52:09.408Z,87.30
2019-05-09T10:54:37.201Z,87.10
2019-05-09T10:57:05.261Z,85.90
2019-05-09T10:59:33.176Z,88.40
2019-05-09T11:02:00.865Z,88.20
2019-05-09T11:04:28.865Z,84.80
2019-05-09T11:06:58.283Z,83.70
2019-05-09T11:09:29.005Z,83.90
2019-05-09T11:11:58.727Z,84.50
2019-05-09T11:14:35.999Z,81.90
2019-05-09T11:17:07.990Z,83.80
2019-05-09T11:19:24.858Z,83.90
2019-05-09T11:21:52.659Z,86.00
2019-05-09T11:24:20.546Z,82.90
2019-05-09T11:26:48.443Z,83.20
2019-05-09T11:29:18.595Z,84.10
2019-05-09T11:32:27.601Z,84.80
2019-05-09T11:35:25.356Z,85.20
2019-05-09T11:37:58.684Z,87.40
2019-05-09T11:40:28.146Z,86.90
2019-05-09T11:42:55.956Z,89.70
2019-05-09T11:45:23.786Z,91.00
2019-05-09T11:47:51.495Z,92.00
2019-05-09T11:50:23.029Z,93.00
2019-05-09T11:52:49.199Z,93.60
2019-05-09T11:55:29.611Z,93.80
2019-05-09T11:57:48.599Z,93.70
2019-05-09T12:00:17.953Z,94.60
2019-05-09T12:02:46.213Z,94.50
2019-05-09T12:05:13.918Z,95.10
2019-05-09T12:07:41.820Z,95.40
2019-05-09T12:10:09.845Z,95.90
2019-05-09T12:12:41.137Z,96.60
2019-05-09T12:15:11.742Z,97.10
2019-05-09T12:17:56.481Z,97.80
2019-05-09T12:20:13.587Z,97.70
2019-05-09T12:22:42.886Z,98.70
2019-05-09T12:25:10.751Z,99.00
2019-05-09T12:27:38.628Z,99.00
2019-05-09T12:30:07.620Z,98.90
2019-05-09T12:32:38.357Z,97.90
2019-05-09T12:35:08.678Z,99.00
2019-05-09T12:37:37.685Z,99.10
2019-05-09T12:40:07.700Z,98.90
2019-05-09T12:42:35.693Z,98.90
2019-05-09T12:45:04.219Z,98.50
2019-05-09T12:47:32.609Z,99.70
2019-05-09T12:50:02.823Z,98.80
2019-05-09T12:52:30.734Z,98.60
2019-05-09T12:54:58.530Z,99.90
2019-05-09T12:57:28.861Z,98.60
2019-05-09T12:59:58.508Z,99.10
2019-05-09T13:02:27.868Z,99.10
2019-05-09T13:04:55.429Z,99.40
2019-05-09T13:07:23.369Z,98.60
2019-05-09T13:09:52.586Z,98.80
2019-05-09T13:12:20.796Z,98.80
2019-05-09T13:14:48.743Z,98.60
2019-05-09T13:17:44.917Z,98.60
2019-05-09T13:20:17.931Z,99.10
2019-05-09T13:22:47.725Z,98.50
2019-05-09T13:25:15.522Z,98.90
2019-05-09T13:27:43.288Z,98.40
2019-05-09T13:30:11.225Z,97.90
2019-05-09T13:32:39.207Z,97.90
2019-05-09T13:35:07.078Z,98.90
2019-05-09T13:37:37.976Z,99.00
2019-05-09T13:40:05.146Z,99.00
2019-05-09T13:42:33.215Z,99.90
2019-05-09T13:45:01.053Z,99.30
2019-05-09T13:47:29.842Z,98.80
2019-05-09T13:49:59.114Z,99.20
2019-05-09T13:52:27.484Z,99.90
2019-05-09T13:54:55.439Z,99.90
2019-05-09T13:57:23.220Z,99.90
2019-05-09T13:59:51.127Z,99.90
2019-05-09T14:02:19.083Z,99.90
2019-05-09T14:04:48.602Z,99.90
2019-05-09T14:07:19.044Z,99.90
2019-05-09T14:09:48.401Z,99.90
2019-05-09T14:12:17.592Z,99.90
2019-05-09T14:14:45.644Z,99.90
2019-05-09T14:17:14.018Z,99.90
2019-05-09T14:19:46.405Z,99.90
2019-05-09T14:22:12.103Z,97.80
2019-05-09T14:24:39.853Z,97.00
2019-05-09T14:27:08.251Z,97.50
2019-05-09T14:29:38.132Z,95.90
2019-05-09T14:32:05.972Z,96.30
2019-05-09T14:34:33.850Z,96.30
2019-05-09T14:37:01.661Z,97.00
2019-05-09T14:39:29.486Z,96.50
2019-05-09T14:41:57.869Z,96.70
2019-05-09T14:44:27.718Z,96.00
2019-05-09T14:46:55.470Z,95.90
2019-05-09T14:49:23.301Z,96.10
2019-05-09T14:51:53.869Z,96.30
2019-05-09T14:54:21.575Z,96.20
2019-05-09T14:56:49.414Z,95.60
2019-05-09T14:59:18.674Z,95.40
2019-05-09T15:01:49.303Z,95.70
2019-05-09T15:04:18.713Z,96.10
2019-05-09T15:06:48.636Z,96.80
2019-05-09T15:09:18.069Z,97.50
2019-05-09T15:11:48.136Z,97.10
2019-05-09T15:14:15.107Z,98.10
2019-05-09T15:16:42.793Z,98.50
2019-05-09T15:19:10.705Z,99.00
2019-05-09T15:21:38.624Z,99.20
2019-05-09T15:24:08.897Z,99.50
2019-05-09T15:26:37.355Z,99.70
2019-05-09T15:29:07.752Z,99.90
2019-05-09T15:31:35.511Z,99.80
2019-05-09T15:34:03.278Z,99.90
2019-05-09T15:36:31.059Z,99.60
2019-05-09T15:38:59.295Z,99.70
2019-05-09T15:41:27.765Z,99.90
2019-05-09T15:43:57.849Z,99.70
2019-05-09T15:46:31.066Z,99.90
2019-05-09T15:49:00.915Z,99.90
2019-05-09T15:51:32.020Z,99.90
2019-05-09T15:53:58.253Z,99.90
2019-05-09T15:56:28.667Z,99.90
2019-05-09T15:58:57.859Z,99.40
2019-05-09T16:01:27.707Z,99.50
2019-05-09T16:03:55.046Z,98.70
2019-05-09T16:06:22.974Z,98.30
2019-05-09T16:08:50.845Z,97.70
2019-05-09T16:11:18.649Z,97.50
2019-05-09T16:13:48.066Z,97.40
2019-05-09T16:16:17.632Z,97.70
2019-05-09T16:18:48.330Z,97.90
2019-05-09T16:21:15.497Z,98.10
2019-05-09T16:23:43.383Z,98.80
2019-05-09T16:26:11.063Z,98.80
2019-05-09T16:28:39.141Z,98.80
2019-05-09T16:31:06.947Z,99.90
2019-05-09T16:33:34.776Z,99.70
2019-05-09T16:36:02.657Z,99.90
2019-05-09T16:38:42.069Z,99.50
2019-05-09T16:41:00.300Z,99.90
2019-05-09T16:43:28.130Z,99.90
2019-05-09T16:45:58.116Z,99.90
2019-05-09T16:48:27.655Z,99.30
2019-05-09T16:51:03.195Z,99.30
2019-05-09T16:53:25.086Z,98.40
2019-05-09T16:55:52.915Z,98.30
2019-05-09T16:58:20.757Z,98.20
2019-05-09T17:00:50.850Z,97.60
2019-05-09T17:03:19.447Z,97.40
2019-05-09T17:05:47.430Z,97.40
2019-05-09T17:08:17.578Z,97.10
2019-05-09T17:10:45.049Z,97.30
2019-05-09T17:13:12.767Z,97.30
2019-05-09T17:15:40.921Z,97.70
2019-05-09T17:18:10.009Z,97.80
2019-05-09T17:20:58.755Z,98.30
2019-05-09T17:23:29.621Z,98.20
2019-05-09T17:25:58.001Z,98.70
2019-05-09T17:28:28.295Z,97.90
2019-05-09T17:30:57.876Z,97.40
2019-05-09T17:33:25.449Z,97.70
2019-05-09T17:35:53.331Z,97.70
2019-05-09T17:38:21.125Z,98.20
2019-05-09T17:40:48.839Z,97.50
2019-05-09T17:43:18.312Z,97.90
2019-05-09T17:45:47.857Z,97.50
2019-05-09T17:48:18.374Z,97.40
2019-05-09T17:50:45.735Z,97.60
2019-05-09T17:53:13.571Z,97.50
2019-05-09T17:55:41.331Z,97.40
2019-05-09T17:58:09.137Z,97.30
2019-05-09T18:00:37.976Z,98.30
2019-05-09T18:03:07.934Z,98.40
2019-05-09T18:05:38.283Z,98.80
2019-05-09T18:08:07.878Z,99.40
2019-05-09T18:10:37.772Z,99.40
2019-05-09T18:13:04.945Z,99.40
2019-05-09T18:15:32.916Z,99.40
2019-05-09T18:18:00.890Z,99.60
2019-05-09T18:20:28.621Z,99.70
2019-05-09T18:22:58.591Z,99.60
2019-05-09T18:25:26.243Z,99.60
2019-05-09T18:27:54.393Z,99.60
2019-05-09T18:30:22.435Z,99.70
2019-05-09T18:32:57.885Z,99.80
2019-05-09T18:35:28.184Z,99.80
2019-05-09T18:37:58.846Z,99.80
2019-05-09T18:40:28.181Z,99.60
2019-05-09T18:42:58.217Z,99.80
2019-05-09T18:45:28.058Z,99.80
2019-05-09T18:47:57.929Z,99.80
2019-05-09T18:50:25.649Z,99.80
2019-05-09T18:52:53.630Z,99.40
2019-05-09T18:55:21.475Z,99.50
2019-05-09T18:57:49.190Z,99.50
2019-05-09T19:00:17.858Z,99.20
2019-05-09T19:02:46.606Z,99.10
2019-05-09T19:05:16.004Z,98.80
2019-05-09T19:07:47.395Z,98.60
2019-05-09T19:10:16.027Z,98.70
2019-05-09T19:12:44.553Z,98.30
2019-05-09T19:15:27.719Z,98.50
2019-05-09T19:18:04.843Z,98.40
2019-05-09T19:20:45.870Z,98.30
2019-05-09T19:23:15.598Z,98.70
2019-05-09T19:25:43.796Z,98.40
2019-05-09T19:28:11.727Z,98.60
2019-05-09T19:30:39.518Z,98.60
2019-05-09T19:33:07.147Z,98.70
2019-05-09T19:35:34.954Z,98.20
2019-05-09T19:38:02.827Z,98.10
2019-05-09T19:40:33.082Z,98.40
2019-05-09T19:43:00.855Z,98.60
2019-05-09T19:45:28.663Z,98.40
2019-05-09T19:47:56.619Z,98.20
2019-05-09T19:50:24.499Z,98.40
2019-05-09T19:52:52.305Z,98.20
2019-05-09T19:55:20.136Z,98.10
2019-05-09T19:57:47.884Z,98.30
2019-05-09T20:00:16.514Z,98.40
2019-05-09T20:02:44.603Z,98.40
2019-05-09T20:05:12.839Z,98.10
2019-05-09T20:07:40.935Z,98.30
2019-05-09T20:10:27.307Z,98.60
2019-05-09T20:13:25.179Z,98.70
2019-05-09T20:15:54.638Z,98.80
2019-05-09T20:18:22.775Z,99.00
2019-05-09T20:20:50.853Z,99.00
2019-05-09T20:23:18.834Z,99.30
2019-05-09T20:25:46.540Z,99.00
2019-05-09T20:28:14.304Z,98.80
2019-05-09T20:30:42.214Z,99.00
2019-05-09T20:33:10.181Z,99.00
2019-05-09T20:35:37.929Z,99.10
2019-05-09T20:38:05.823Z,99.00
2019-05-09T20:40:33.645Z,99.10
2019-05-09T20:43:01.949Z,99.30
2019-05-09T20:45:29.655Z,99.30
2019-05-09T20:47:57.449Z,99.10
2019-05-09T20:50:25.198Z,99.10
2019-05-09T20:53:07.278Z,99.10
2019-05-09T20:55:22.804Z,99.00
2019-05-09T20:57:52.107Z,99.20
2019-05-09T21:00:20.304Z,99.30
2019-05-09T21:02:48.640Z,99.20
2019-05-09T21:05:16.524Z,99.10
2019-05-09T21:07:44.667Z,99.30
2019-05-09T21:10:12.727Z,99.20
2019-05-09T21:12:40.933Z,99.40
2019-05-09T21:15:09.053Z,99.20
2019-05-09T21:17:37.483Z,99.30
2019-05-09T21:20:05.709Z,99.50
2019-05-09T21:22:33.811Z,99.50
2019-05-09T21:25:01.590Z,99.30
2019-05-09T21:27:30.914Z,99.00
2019-05-09T21:29:58.727Z,99.20
2019-05-09T21:32:26.463Z,98.90
2019-05-09T21:34:54.365Z,99.00
2019-05-09T21:37:22.205Z,98.90
2019-05-09T21:39:50.214Z,99.30
2019-05-09T21:42:18.212Z,99.30
2019-05-09T21:44:46.082Z,99.00
2019-05-09T21:47:13.890Z,99.10
2019-05-09T21:49:41.656Z,99.00
2019-05-09T21:52:09.485Z,99.20
2019-05-09T21:54:37.285Z,99.30
2019-05-09T21:57:05.035Z,99.40
2019-05-09T21:59:32.812Z,99.60
2019-05-09T22:02:00.557Z,99.50
2019-05-09T22:04:28.369Z,99.60
2019-05-09T22:06:56.141Z,99.70
2019-05-09T22:09:24.119Z,99.90
2019-05-09T22:11:51.943Z,99.90
2019-05-09T22:14:19.809Z,99.90
2019-05-09T22:16:48.786Z,99.90
2019-05-09T22:19:16.475Z,99.90
2019-05-09T22:21:44.294Z,99.90
2019-05-09T22:24:11.978Z,99.90
2019-05-09T22:26:39.833Z,99.90
2019-05-09T22:29:07.555Z,99.90
2019-05-09T22:31:35.338Z,99.90
2019-05-09T22:34:03.014Z,99.90
2019-05-09T22:36:30.879Z,99.90
2019-05-09T22:38:58.560Z,99.90
2019-05-09T22:41:26.363Z,99.90
2019-05-09T22:43:54.125Z,99.90
2019-05-09T22:46:21.909Z,99.90
2019-05-09T22:48:49.663Z,99.90
2019-05-09T22:51:17.390Z,99.90
2019-05-09T22:53:45.268Z,99.90
2019-05-09T22:56:13.138Z,99.90
2019-05-09T22:58:40.989Z,99.90
2019-05-09T23:01:08.671Z,99.80
2019-05-09T23:03:36.430Z,99.70
2019-05-09T23:06:04.216Z,99.30
2019-05-09T23:08:31.990Z,99.40
2019-05-09T23:10:59.668Z,98.90
2019-05-09T23:13:27.534Z,99.20
2019-05-09T23:15:55.258Z,98.80
2019-05-09T23:18:22.975Z,98.50
2019-05-09T23:20:56.092Z,98.50
2019-05-09T23:23:36.979Z,98.60
2019-05-09T23:26:06.297Z,98.70
2019-05-09T23:28:34.082Z,98.80
2019-05-09T23:31:04.875Z,98.80
2019-05-09T23:33:37.273Z,98.80
2019-05-09T23:36:06.444Z,98.80
2019-05-09T23:38:36.363Z,98.80
2019-05-09T23:41:05.688Z,98.70
2019-05-09T23:43:33.442Z,98.40
2019-05-09T23:46:01.237Z,98.10
2019-05-09T23:48:29.015Z,98.30
2019-05-09T23:50:56.956Z,98.30
2019-05-09T23:53:31.325Z,98.30
2019-05-09T23:56:19.387Z,98.20
2019-05-09T23:59:07.136Z,98.10
